createdAt,value
2022-08-17T00:00:42.723Z,3.90
2022-08-17T00:03:13.554Z,4.70
2022-08-17T00:05:45.161Z,3.93
2022-08-17T00:08:15.509Z,3.37
2022-08-17T00:10:45.073Z,4.03
2022-08-17T00:13:17.732Z,5.50
2022-08-17T00:15:47.228Z,3.40
2022-08-17T00:18:53.823Z,4.30
2022-08-17T00:21:10.513Z,3.70
2022-08-17T00:23:44.479Z,3.87
2022-08-17T00:26:37.494Z,3.17
2022-08-17T00:29:08.539Z,3.23
2022-08-17T00:31:37.806Z,3.37
2022-08-17T00:34:09.219Z,3.03
2022-08-17T00:36:38.034Z,3.27
2022-08-17T00:39:06.884Z,3.37
2022-08-17T00:41:35.953Z,3.40
2022-08-17T00:44:09.779Z,3.53
2022-08-17T00:46:40.989Z,3.37
2022-08-17T00:49:12.807Z,3.47
2022-08-17T00:51:46.714Z,11.30
2022-08-17T00:54:19.981Z,4.30
2022-08-17T00:56:53.524Z,5.17
2022-08-17T00:59:26.143Z,6.53
2022-08-17T01:01:55.041Z,3.80
2022-08-17T01:04:26.122Z,4.90
2022-08-17T01:06:55.005Z,3.40
2022-08-17T01:09:24.172Z,2.77
2022-08-17T01:11:54.030Z,3.27
2022-08-17T01:14:24.975Z,3.03
2022-08-17T01:16:56.210Z,2.90
2022-08-17T01:19:28.944Z,2.97
2022-08-17T01:22:06.005Z,2.87
2022-08-17T01:24:37.212Z,3.20
2022-08-17T01:27:10.399Z,2.80
2022-08-17T01:29:41.207Z,3.43
2022-08-17T01:32:10.636Z,2.70
2022-08-17T01:34:42.685Z,2.77
2022-08-17T01:37:19.835Z,3.43
2022-08-17T01:39:53.708Z,3.10
2022-08-17T01:42:27.033Z,3.37
2022-08-17T01:45:03.470Z,3.27
2022-08-17T01:47:32.525Z,2.67
2022-08-17T01:50:11.112Z,3.20
2022-08-17T01:52:41.513Z,3.57
2022-08-17T01:55:12.331Z,3.23
2022-08-17T01:57:42.513Z,3.13
2022-08-17T02:00:11.740Z,3.17
2022-08-17T02:02:40.229Z,3.40
2022-08-17T02:05:09.885Z,3.40
2022-08-17T02:07:59.663Z,2.80
2022-08-17T02:10:33.666Z,2.83
2022-08-17T02:13:04.267Z,3.20
2022-08-17T02:15:34.694Z,3.30
2022-08-17T02:18:03.236Z,2.80
2022-08-17T02:20:41.592Z,3.03
2022-08-17T02:23:14.445Z,2.80
2022-08-17T02:25:47.741Z,3.77
2022-08-17T02:28:16.409Z,2.70
2022-08-17T02:30:59.427Z,3.10
2022-08-17T02:33:41.784Z,2.60
2022-08-17T02:36:13.152Z,3.00
2022-08-17T02:38:42.459Z,2.80
2022-08-17T02:41:13.086Z,3.50
2022-08-17T02:43:41.885Z,2.77
2022-08-17T02:46:12.712Z,2.97
2022-08-17T02:48:41.292Z,3.07
2022-08-17T02:51:09.812Z,3.27
2022-08-17T02:53:38.453Z,4.07
2022-08-17T02:56:07.445Z,3.50
2022-08-17T02:58:37.311Z,3.37
2022-08-17T03:01:07.099Z,3.57
2022-08-17T03:03:36.836Z,3.00
2022-08-17T03:06:07.782Z,3.07
2022-08-17T03:08:38.245Z,4.20
2022-08-17T03:11:06.731Z,3.37
2022-08-17T03:13:36.652Z,2.90
2022-08-17T03:16:05.502Z,3.43
2022-08-17T03:18:34.326Z,2.93
2022-08-17T03:21:04.609Z,3.30
2022-08-17T03:23:33.992Z,3.27
2022-08-17T03:26:02.909Z,3.30
2022-08-17T03:28:31.937Z,3.13
2022-08-17T03:31:01.827Z,3.80
2022-08-17T03:33:30.898Z,3.40
2022-08-17T03:36:00.096Z,5.13
2022-08-17T03:38:28.783Z,4.67
2022-08-17T03:41:08.226Z,3.53
2022-08-17T03:43:36.943Z,3.60
2022-08-17T03:46:39.121Z,3.53
2022-08-17T03:49:27.466Z,4.17
2022-08-17T03:52:14.449Z,3.80
2022-08-17T03:55:01.522Z,3.87
2022-08-17T03:57:30.720Z,3.67
2022-08-17T03:59:59.822Z,3.57
2022-08-17T04:02:31.934Z,3.10
2022-08-17T04:05:00.960Z,3.60
2022-08-17T04:07:31.825Z,3.57
2022-08-17T04:10:00.549Z,2.90
2022-08-17T04:12:31.116Z,4.30
2022-08-17T04:15:00.041Z,3.97
2022-08-17T04:17:32.695Z,4.30
2022-08-17T04:20:02.200Z,4.73
2022-08-17T04:22:34.212Z,3.43
2022-08-17T04:25:15.019Z,3.30
2022-08-17T04:27:43.583Z,3.30
2022-08-17T04:30:13.644Z,3.30
2022-08-17T04:33:06.185Z,3.13
2022-08-17T04:35:38.870Z,4.27
2022-08-17T04:38:08.263Z,4.17
2022-08-17T04:40:54.981Z,3.50
2022-08-17T04:43:27.331Z,3.70
2022-08-17T04:45:58.484Z,4.70
2022-08-17T04:48:36.512Z,3.00
2022-08-17T04:51:09.553Z,2.80
2022-08-17T04:53:38.943Z,2.50
2022-08-17T04:56:07.900Z,3.00
2022-08-17T04:58:40.577Z,3.10
2022-08-17T05:01:09.243Z,3.40
2022-08-17T05:03:39.329Z,2.83
2022-08-17T05:06:08.177Z,2.70
2022-08-17T05:08:36.863Z,3.23
2022-08-17T05:11:05.433Z,3.43
2022-08-17T05:13:33.960Z,2.83
2022-08-17T05:16:04.569Z,3.17
2022-08-17T05:18:33.779Z,3.10
2022-08-17T05:21:04.023Z,2.93
2022-08-17T05:23:41.642Z,3.20
2022-08-17T05:26:13.562Z,3.13
2022-08-17T05:28:57.317Z,3.47
2022-08-17T05:31:28.966Z,3.80
2022-08-17T05:33:57.693Z,5.33
2022-08-17T05:36:41.831Z,3.53
2022-08-17T05:39:15.738Z,2.90
2022-08-17T05:41:48.828Z,2.80
2022-08-17T05:44:18.058Z,3.60
2022-08-17T05:46:51.976Z,3.23
2022-08-17T05:49:27.260Z,3.47
2022-08-17T05:52:19.817Z,4.40
2022-08-17T05:55:07.337Z,4.57
2022-08-17T05:57:52.895Z,5.03
2022-08-17T06:00:26.340Z,5.37
2022-08-17T06:03:16.587Z,3.87
2022-08-17T06:06:00.025Z,4.20
2022-08-17T06:08:36.442Z,4.70
2022-08-17T06:11:18.254Z,3.77
2022-08-17T06:14:14.173Z,3.57
2022-08-17T06:16:45.621Z,3.50
2022-08-17T06:19:18.709Z,4.53
2022-08-17T06:21:50.153Z,4.57
2022-08-17T06:24:29.120Z,3.00
2022-08-17T06:27:05.312Z,4.80
2022-08-17T06:29:44.065Z,3.70
2022-08-17T06:32:14.714Z,3.13
2022-08-17T06:34:44.843Z,5.20
2022-08-17T06:37:34.449Z,6.93
2022-08-17T06:40:20.396Z,7.50
2022-08-17T06:43:06.657Z,3.80
2022-08-17T06:45:43.177Z,4.47
2022-08-17T06:48:17.141Z,10.07
2022-08-17T06:50:50.216Z,9.73
2022-08-17T06:53:25.934Z,5.23
2022-08-17T06:56:01.375Z,4.53
2022-08-17T06:58:31.592Z,4.90
2022-08-17T07:01:07.039Z,4.17
2022-08-17T07:03:40.834Z,6.03
2022-08-17T07:06:14.663Z,6.40
2022-08-17T07:08:52.281Z,5.23
2022-08-17T07:11:28.666Z,4.30
2022-08-17T07:14:05.313Z,3.83
2022-08-17T07:16:39.800Z,4.87
2022-08-17T07:19:11.021Z,11.00
2022-08-17T07:21:51.730Z,4.93
2022-08-17T07:24:33.239Z,4.50
2022-08-17T07:27:10.778Z,3.20
2022-08-17T07:29:44.111Z,2.97
2022-08-17T07:32:18.395Z,3.30
2022-08-17T07:35:19.929Z,3.70
2022-08-17T07:37:54.245Z,3.50
2022-08-17T07:40:29.631Z,3.80
2022-08-17T07:43:23.403Z,4.13
2022-08-17T07:46:17.168Z,4.50
2022-08-17T07:48:50.799Z,3.60
2022-08-17T07:51:25.273Z,4.07
2022-08-17T07:54:12.900Z,3.90
2022-08-17T07:56:46.582Z,4.17
2022-08-17T07:59:21.837Z,4.30
2022-08-17T08:02:06.267Z,3.53
2022-08-17T08:07:31.987Z,4.30
2022-08-17T08:10:05.175Z,5.03
2022-08-17T08:12:36.808Z,4.23
2022-08-17T08:15:13.600Z,3.67
2022-08-17T08:17:53.389Z,4.23
2022-08-17T08:20:51.127Z,3.73
2022-08-17T08:23:26.672Z,4.20
2022-08-17T08:26:08.371Z,3.70
2022-08-17T08:28:45.043Z,4.20
2022-08-17T08:31:25.336Z,4.57
2022-08-17T08:34:06.618Z,4.47
2022-08-17T08:37:14.160Z,3.80
2022-08-17T08:39:48.554Z,3.37
2022-08-17T08:42:26.201Z,3.23
2022-08-17T08:45:04.792Z,4.00
2022-08-17T08:48:05.897Z,3.97
2022-08-17T08:50:49.439Z,3.87
2022-08-17T08:53:30.969Z,4.50
2022-08-17T08:56:07.761Z,3.50
2022-08-17T08:58:50.824Z,3.27
2022-08-17T09:01:27.591Z,3.93
2022-08-17T09:04:25.063Z,3.30
2022-08-17T09:07:09.600Z,4.28
2022-08-17T09:09:50.800Z,3.17
2022-08-17T09:12:30.131Z,3.50
2022-08-17T09:15:02.518Z,2.73
2022-08-17T09:17:38.600Z,3.53
2022-08-17T09:20:27.354Z,3.20
2022-08-17T09:23:04.035Z,3.53
2022-08-17T09:25:40.692Z,3.50
2022-08-17T09:28:19.329Z,3.35
2022-08-17T09:30:51.005Z,3.90
2022-08-17T09:33:26.268Z,4.20
2022-08-17T09:36:01.515Z,4.33
2022-08-17T09:38:36.470Z,3.95
2022-08-17T09:41:14.394Z,3.70
2022-08-17T09:43:54.097Z,4.00
2022-08-17T09:46:26.265Z,3.33
2022-08-17T09:49:03.792Z,3.35
2022-08-17T09:51:40.187Z,3.45
2022-08-17T09:54:37.961Z,3.53
2022-08-17T09:57:31.444Z,3.80
2022-08-17T10:00:16.600Z,3.22
2022-08-17T10:03:08.773Z,3.67
2022-08-17T10:05:46.656Z,2.92
2022-08-17T10:08:29.470Z,3.10
2022-08-17T10:11:12.691Z,3.30
2022-08-17T10:13:52.681Z,3.60
2022-08-17T10:16:31.840Z,4.10
2022-08-17T10:19:14.946Z,3.92
2022-08-17T10:22:32.528Z,2.78
2022-08-17T10:25:22.605Z,3.22
2022-08-17T10:27:56.011Z,3.15
2022-08-17T10:30:27.693Z,3.55
2022-08-17T10:32:59.323Z,3.33
2022-08-17T10:35:42.416Z,3.45
2022-08-17T10:38:30.437Z,3.35
2022-08-17T10:41:07.121Z,3.53
2022-08-17T10:43:58.926Z,5.30
2022-08-17T10:47:07.222Z,4.63
2022-08-17T10:49:36.985Z,3.28
2022-08-17T10:52:37.290Z,3.38
2022-08-17T10:55:15.114Z,3.83
2022-08-17T10:57:47.488Z,4.40
2022-08-17T11:00:59.662Z,4.13
2022-08-17T11:03:28.670Z,4.60
2022-08-17T11:06:15.434Z,4.55
2022-08-17T11:09:11.947Z,4.80
2022-08-17T11:12:11.534Z,5.00
2022-08-17T11:15:13.302Z,4.90
2022-08-17T11:18:01.717Z,4.72
2022-08-17T11:20:54.832Z,4.00
2022-08-17T11:23:57.057Z,4.32
2022-08-17T11:26:29.705Z,4.25
2022-08-17T11:29:01.645Z,6.07
2022-08-17T11:31:39.861Z,4.50
2022-08-17T11:34:19.920Z,4.50
2022-08-17T11:37:42.355Z,3.72
2022-08-17T11:40:34.474Z,3.78
2022-08-17T11:43:38.372Z,3.85
2022-08-17T11:46:19.840Z,3.63
2022-08-17T11:49:20.161Z,3.60
2022-08-17T11:52:10.557Z,4.03
2022-08-17T11:54:45.223Z,4.32
2022-08-17T11:57:54.592Z,4.35
2022-08-17T12:00:56.497Z,4.05
2022-08-17T12:03:55.783Z,3.90
2022-08-17T12:06:42.730Z,3.28
2022-08-17T12:09:17.507Z,3.63
2022-08-17T12:11:55.543Z,5.55
2022-08-17T12:15:09.016Z,3.78
2022-08-17T12:17:39.635Z,3.63
2022-08-17T12:20:16.399Z,3.78
2022-08-17T12:22:54.969Z,4.32
2022-08-17T12:25:33.180Z,3.30
2022-08-17T12:28:05.067Z,3.58
2022-08-17T12:30:36.761Z,5.30
2022-08-17T12:33:12.527Z,3.70
2022-08-17T12:35:43.548Z,3.30
2022-08-17T12:38:32.407Z,3.60
2022-08-17T12:41:24.712Z,3.28
2022-08-17T12:44:02.499Z,3.38
2022-08-17T12:46:35.065Z,3.20
2022-08-17T12:49:31.571Z,3.17
2022-08-17T12:52:25.147Z,3.83
2022-08-17T12:54:57.960Z,2.97
2022-08-17T12:57:29.432Z,3.60
2022-08-17T13:00:00.964Z,3.53
2022-08-17T13:02:33.899Z,3.13
2022-08-17T13:05:03.261Z,3.50
2022-08-17T13:07:43.800Z,3.47
2022-08-17T13:10:22.743Z,3.15
2022-08-17T13:12:52.602Z,3.38
2022-08-17T13:15:31.903Z,3.17
2022-08-17T13:18:06.204Z,3.35
2022-08-17T13:20:37.317Z,3.20
2022-08-17T13:23:12.559Z,3.83
2022-08-17T13:25:41.468Z,3.00
2022-08-17T13:28:35.710Z,3.60
2022-08-17T13:31:32.782Z,3.97
2022-08-17T13:34:15.574Z,3.22
2022-08-17T13:36:47.041Z,3.33
2022-08-17T13:39:21.356Z,2.53
2022-08-17T13:41:56.193Z,3.50
2022-08-17T13:44:37.177Z,2.95
2022-08-17T13:47:07.834Z,3.58
2022-08-17T13:49:48.210Z,3.30
2022-08-17T13:52:34.783Z,3.53
2022-08-17T13:55:07.863Z,3.13
2022-08-17T13:57:37.435Z,3.28
2022-08-17T14:00:12.979Z,3.92
2022-08-17T14:02:42.807Z,2.80
2022-08-17T14:05:11.387Z,2.85
2022-08-17T14:07:41.172Z,2.80
2022-08-17T14:10:16.259Z,5.68
2022-08-17T14:12:46.708Z,2.70
2022-08-17T14:15:18.304Z,2.92
2022-08-17T14:17:49.198Z,3.10
2022-08-17T14:20:20.739Z,2.72
2022-08-17T14:22:52.266Z,2.83
2022-08-17T14:25:25.288Z,2.90
2022-08-17T14:27:54.241Z,2.65
2022-08-17T14:30:29.977Z,2.88
2022-08-17T14:32:59.626Z,2.72
2022-08-17T14:35:29.598Z,4.32
2022-08-17T14:37:58.650Z,4.07
2022-08-17T14:40:29.975Z,7.47
2022-08-17T14:42:59.367Z,4.03
2022-08-17T14:45:31.798Z,3.05
2022-08-17T14:48:04.239Z,3.08
2022-08-17T14:50:35.847Z,3.45
2022-08-17T14:53:05.600Z,3.53
2022-08-17T14:55:36.990Z,3.65
2022-08-17T14:58:07.143Z,3.28
2022-08-17T15:00:36.806Z,3.30
2022-08-17T15:03:06.128Z,9.93
2022-08-17T15:05:37.083Z,4.35
2022-08-17T15:08:06.725Z,2.58
2022-08-17T15:10:37.449Z,3.50
2022-08-17T15:13:06.509Z,3.95
2022-08-17T15:15:35.096Z,2.97
2022-08-17T15:18:04.211Z,3.65
2022-08-17T15:20:33.438Z,2.88
2022-08-17T15:23:02.038Z,3.20
2022-08-17T15:25:33.346Z,3.50
2022-08-17T15:28:03.613Z,2.58
2022-08-17T15:30:32.751Z,4.43
2022-08-17T15:33:02.185Z,3.10
2022-08-17T15:35:33.608Z,3.50
2022-08-17T15:38:11.130Z,3.67
2022-08-17T15:40:44.229Z,3.78
2022-08-17T15:43:17.656Z,5.43
2022-08-17T15:45:58.643Z,2.78
2022-08-17T15:48:41.624Z,3.42
2022-08-17T15:51:12.481Z,3.45
2022-08-17T15:53:43.652Z,3.40
2022-08-17T15:56:13.752Z,2.95
2022-08-17T15:58:45.290Z,4.70
2022-08-17T16:01:18.862Z,4.43
2022-08-17T16:04:26.387Z,4.38
2022-08-17T16:06:53.370Z,5.10
2022-08-17T16:09:21.901Z,3.80
2022-08-17T16:11:53.685Z,3.70
2022-08-17T16:14:32.533Z,4.60
2022-08-17T16:17:04.698Z,3.90
2022-08-17T16:19:34.460Z,3.22
2022-08-17T16:22:04.077Z,3.35
2022-08-17T16:24:33.103Z,3.22
2022-08-17T16:27:01.969Z,3.70
2022-08-17T16:29:32.039Z,3.03
2022-08-17T16:32:08.978Z,4.43
2022-08-17T16:34:37.615Z,4.53
2022-08-17T16:37:06.265Z,3.20
2022-08-17T16:39:35.728Z,4.80
2022-08-17T16:42:05.416Z,5.13
2022-08-17T16:44:35.419Z,6.20
2022-08-17T16:47:04.343Z,12.23
2022-08-17T16:49:37.281Z,18.33
2022-08-17T16:52:10.415Z,5.15
2022-08-17T16:54:40.680Z,12.80
2022-08-17T16:57:09.206Z,4.47
2022-08-17T16:59:43.748Z,11.55
2022-08-17T17:02:16.778Z,7.00
2022-08-17T17:04:52.028Z,4.15
2022-08-17T17:07:38.945Z,3.88
2022-08-17T17:10:11.280Z,7.00
2022-08-17T17:13:02.162Z,6.55
2022-08-17T17:15:44.410Z,13.63
2022-08-17T17:18:15.579Z,5.05
2022-08-17T17:20:53.634Z,22.38
2022-08-17T17:23:37.250Z,5.75
2022-08-17T17:26:17.488Z,7.88
2022-08-17T17:28:57.319Z,6.80
2022-08-17T17:31:34.075Z,4.05
2022-08-17T17:34:06.373Z,3.95
2022-08-17T17:36:41.291Z,4.25
2022-08-17T17:39:14.585Z,4.43
2022-08-17T17:41:48.433Z,4.63
2022-08-17T17:44:21.238Z,4.43
2022-08-17T17:46:55.843Z,4.70
2022-08-17T17:49:25.253Z,4.68
2022-08-17T17:52:14.447Z,5.55
2022-08-17T17:55:03.437Z,5.28
2022-08-17T17:57:44.991Z,4.57
2022-08-17T18:00:19.663Z,4.70
2022-08-17T18:03:05.938Z,5.05
2022-08-17T18:05:53.243Z,4.95
2022-08-17T18:08:35.463Z,4.70
2022-08-17T18:11:24.093Z,5.10
2022-08-17T18:14:14.525Z,5.63
2022-08-17T18:16:44.151Z,5.55
2022-08-17T18:19:16.103Z,5.35
2022-08-17T18:21:50.099Z,6.25
2022-08-17T18:24:30.839Z,6.20
2022-08-17T18:27:01.078Z,6.85
2022-08-17T18:29:39.087Z,7.55
2022-08-17T18:32:31.298Z,8.43
2022-08-17T18:35:28.393Z,8.48
2022-08-17T18:38:20.398Z,6.57
2022-08-17T18:41:00.165Z,6.68
2022-08-17T18:43:44.222Z,6.38
2022-08-17T18:46:30.495Z,7.15
2022-08-17T18:49:07.675Z,6.88
2022-08-17T18:51:41.493Z,6.82
2022-08-17T18:54:22.383Z,6.57
2022-08-17T18:56:54.269Z,6.78
2022-08-17T18:59:39.387Z,6.35
2022-08-17T19:02:37.322Z,7.00
2022-08-17T19:05:13.700Z,7.53
2022-08-17T19:07:46.253Z,8.07
2022-08-17T19:10:24.711Z,7.53
2022-08-17T19:13:00.145Z,6.50
2022-08-17T19:15:35.676Z,6.90
2022-08-17T19:18:15.085Z,8.20
2022-08-17T19:20:49.011Z,11.43
2022-08-17T19:23:25.151Z,6.60
2022-08-17T19:25:58.525Z,6.70
2022-08-17T19:28:31.555Z,9.50
2022-08-17T19:31:09.886Z,8.05
2022-08-17T19:33:39.269Z,9.13
2022-08-17T19:36:11.294Z,9.07
2022-08-17T19:38:53.177Z,9.57
2022-08-17T19:41:26.214Z,8.47
2022-08-17T19:44:15.271Z,7.33
2022-08-17T19:46:56.369Z,7.77
2022-08-17T19:49:45.719Z,7.87
2022-08-17T19:52:32.147Z,11.07
2022-08-17T19:55:07.539Z,11.13
2022-08-17T19:57:46.974Z,9.87
2022-08-17T20:00:18.388Z,10.80
2022-08-17T20:02:55.257Z,11.27
2022-08-17T20:06:00.955Z,10.23
2022-08-17T20:08:27.540Z,20.63
2022-08-17T20:11:00.782Z,14.70
2022-08-17T20:13:36.380Z,10.88
2022-08-17T20:16:06.639Z,10.67
2022-08-17T20:18:45.540Z,13.17
2022-08-17T20:21:20.747Z,9.03
2022-08-17T20:23:55.529Z,9.77
2022-08-17T20:26:28.935Z,8.60
2022-08-17T20:29:10.917Z,7.87
2022-08-17T20:31:46.259Z,8.60
2022-08-17T20:34:37.388Z,7.73
2022-08-17T20:37:10.462Z,6.17
2022-08-17T20:39:42.267Z,7.13
2022-08-17T20:42:31.498Z,5.80
2022-08-17T20:45:04.921Z,7.17
2022-08-17T20:47:35.630Z,6.60
2022-08-17T20:50:08.133Z,6.50
2022-08-17T20:52:52.042Z,6.57
2022-08-17T20:55:54.887Z,9.13
2022-08-17T20:58:50.064Z,9.37
2022-08-17T21:01:35.135Z,6.20
2022-08-17T21:04:09.677Z,6.67
2022-08-17T21:07:17.588Z,7.20
2022-08-17T21:09:48.120Z,6.73
2022-08-17T21:12:40.365Z,8.20
2022-08-17T21:15:22.252Z,9.57
2022-08-17T21:17:59.268Z,6.07
2022-08-17T21:20:39.628Z,5.80
2022-08-17T21:23:25.064Z,7.20
2022-08-17T21:26:11.105Z,5.00
2022-08-17T21:29:00.529Z,5.23
2022-08-17T21:31:36.518Z,8.13
2022-08-17T21:34:33.837Z,6.30
2022-08-17T21:37:29.784Z,7.47
2022-08-17T21:40:02.381Z,4.93
2022-08-17T21:42:34.536Z,6.27
2022-08-17T21:45:11.935Z,4.63
2022-08-17T21:47:43.536Z,4.33
2022-08-17T21:50:18.759Z,5.93
2022-08-17T21:52:48.262Z,4.83
2022-08-17T21:55:28.189Z,4.70
2022-08-17T21:58:14.703Z,4.17
2022-08-17T22:00:45.045Z,5.23
2022-08-17T22:03:26.039Z,7.27
2022-08-17T22:05:54.595Z,5.50
2022-08-17T22:08:27.267Z,6.37
2022-08-17T22:11:02.439Z,6.50
2022-08-17T22:13:32.444Z,7.00
2022-08-17T22:16:28.098Z,5.80
2022-08-17T22:18:59.126Z,5.87
2022-08-17T22:21:28.226Z,8.17
2022-08-17T22:24:06.328Z,7.00
2022-08-17T22:27:07.056Z,7.60
2022-08-17T22:29:53.178Z,5.00
2022-08-17T22:32:43.479Z,6.17
2022-08-17T22:35:28.577Z,5.70
2022-08-17T22:37:59.046Z,4.80
2022-08-17T22:40:30.866Z,6.30
2022-08-17T22:43:03.529Z,6.23
2022-08-17T22:45:33.918Z,5.47
2022-08-17T22:48:03.423Z,5.10
2022-08-17T22:50:34.184Z,5.30
2022-08-17T22:53:22.051Z,6.67
2022-08-17T23:02:14.860Z,6.93
2022-08-17T23:04:47.822Z,5.10
2022-08-17T23:07:17.640Z,6.17
2022-08-17T23:09:46.673Z,12.20
2022-08-17T23:12:19.264Z,15.47
2022-08-17T23:14:51.406Z,7.17
2022-08-17T23:17:22.204Z,7.57
2022-08-17T23:19:50.717Z,10.93
2022-08-17T23:22:19.285Z,6.83
2022-08-17T23:24:50.518Z,8.50
2022-08-17T23:27:20.684Z,5.07
2022-08-17T23:29:49.679Z,5.80
2022-08-17T23:32:19.814Z,6.23
2022-08-17T23:34:50.965Z,5.43
2022-08-17T23:37:21.018Z,4.57
2022-08-17T23:39:49.581Z,5.27
2022-08-17T23:42:21.785Z,5.20
2022-08-17T23:44:51.004Z,5.87
2022-08-17T23:47:19.728Z,6.90
2022-08-17T23:49:49.544Z,4.90
2022-08-17T23:52:24.452Z,4.80
2022-08-17T23:54:53.179Z,5.53
2022-08-17T23:57:33.586Z,5.27
